Time;durP1;ratioP1;P1;durP2;ratioP2;P2;SDS_P1;SDS_P2;PMS_P1;PMS_P2;Temp;Humidity;BMP_temperature;BMP_pressure;BME280_temperature;BME280_humidity;BME280_pressure;Samples;Min_cycle;Max_cycle;Signal;HPM_P1;HPM_P2
2021/11/05 00:00:33;;;;;;;0.20;0.20;;;;;;;;;;5085142;28;20210;-67
2021/11/05 00:03:00;;;;;;;0.10;0.10;;;;;;;;;;5085858;28;20227;-67
2021/11/05 00:05:27;;;;;;;0.17;0.17;;;;;;;;;;5085705;28;20203;-68
2021/11/05 00:07:53;;;;;;;0.20;0.20;;;;;;;;;;5085667;28;20206;-67
2021/11/05 00:10:20;;;;;;;0.10;0.10;;;;;;;;;;5085895;28;20207;-68
2021/11/05 00:12:48;;;;;;;0.10;0.10;;;;;;;;;;5085666;28;20451;-67
2021/11/05 00:15:14;;;;;;;0.20;0.20;;;;;;;;;;5085088;28;20214;-67
2021/11/05 00:17:41;;;;;;;0.10;0.10;;;;;;;;;;5085373;28;20396;-67
2021/11/05 00:20:11;;;;;;;0.10;0.10;;;;;;;;;;5085436;28;20251;-67
2021/11/05 00:22:37;;;;;;;0.10;0.10;;;;;;;;;;5085153;28;20249;-67
2021/11/05 00:25:03;;;;;;;0.10;0.10;;;;;;;;;;5085059;28;20252;-68
2021/11/05 00:27:30;;;;;;;0.10;0.10;;;;;;;;;;5085471;28;20207;-66
2021/11/05 00:29:57;;;;;;;0.20;0.20;;;;;;;;;;5085399;28;20369;-67
2021/11/05 00:32:23;;;;;;;0.10;0.10;;;;;;;;;;5085253;28;20281;-67
2021/11/05 00:34:50;;;;;;;0.10;0.10;;;;;;;;;;5085419;28;20221;-66
2021/11/05 00:37:16;;;;;;;0.10;0.10;;;;;;;;;;5085394;28;20431;-67
2021/11/05 00:39:43;;;;;;;0.10;0.10;;;;;;;;;;5085022;28;20207;-67
2021/11/05 00:42:09;;;;;;;0.10;0.10;;;;;;;;;;5084999;28;20251;-67
2021/11/05 00:44:35;;;;;;;0.10;0.10;;;;;;;;;;5084758;28;20225;-67
2021/11/05 00:47:03;;;;;;;0.10;0.10;;;;;;;;;;5084885;28;20425;-66
2021/11/05 00:49:29;;;;;;;0.20;0.20;;;;;;;;;;5084531;28;20203;-66
2021/11/05 00:51:55;;;;;;;0.10;0.10;;;;;;;;;;5084723;28;20519;-67
2021/11/05 00:54:22;;;;;;;0.10;0.10;;;;;;;;;;5084752;28;20208;-66
2021/11/05 00:56:48;;;;;;;0.20;0.20;;;;;;;;;;5088553;28;20206;-67
2021/11/05 00:59:14;;;;;;;0.10;0.10;;;;;;;;;;5084752;28;20232;-67
2021/11/05 01:01:40;;;;;;;0.10;0.10;;;;;;;;;;5084754;28;20206;-67
2021/11/05 01:04:08;;;;;;;0.20;0.20;;;;;;;;;;5084887;28;20210;-67
2021/11/05 01:06:35;;;;;;;0.10;0.10;;;;;;;;;;5084505;28;20211;-67
2021/11/05 01:09:04;;;;;;;0.20;0.20;;;;;;;;;;5084459;28;20233;-67
2021/11/05 01:11:30;;;;;;;0.10;0.10;;;;;;;;;;5084028;28;20252;-67
2021/11/05 01:13:57;;;;;;;0.10;0.10;;;;;;;;;;5084162;28;20207;-67
2021/11/05 01:16:23;;;;;;;0.10;0.10;;;;;;;;;;5084618;28;20369;-67
2021/11/05 01:18:50;;;;;;;0.10;0.10;;;;;;;;;;5084403;28;20203;-67
2021/11/05 01:21:17;;;;;;;0.20;0.20;;;;;;;;;;5084451;28;20206;-67
2021/11/05 01:23:44;;;;;;;3.00;0.50;;;;;;;;;;5084448;28;20247;-66
2021/11/05 01:26:10;;;;;;;0.10;0.10;;;;;;;;;;5084364;28;20401;-67
2021/11/05 01:28:40;;;;;;;0.10;0.10;;;;;;;;;;5084017;28;20229;-67
2021/11/05 01:31:06;;;;;;;0.10;0.10;;;;;;;;;;5084156;28;20296;-67
2021/11/05 01:33:33;;;;;;;0.10;0.10;;;;;;;;;;5084290;28;20206;-67
2021/11/05 01:35:59;;;;;;;0.10;0.10;;;;;;;;;;5083950;28;20202;-67
2021/11/05 01:38:26;;;;;;;0.10;0.10;;;;;;;;;;5083913;28;20207;-67
2021/11/05 01:40:57;;;;;;;0.10;0.10;;;;;;;;;;5084113;28;20251;-67
2021/11/05 01:43:24;;;;;;;0.10;0.10;;;;;;;;;;5083620;28;20214;-67
2021/11/05 01:45:51;;;;;;;0.10;0.10;;;;;;;;;;5084078;28;20198;-68
2021/11/05 01:48:17;;;;;;;0.10;0.10;;;;;;;;;;5083707;28;20227;-67
2021/11/05 01:50:44;;;;;;;0.10;0.10;;;;;;;;;;5083763;28;20297;-67
2021/11/05 01:53:10;;;;;;;1.40;1.30;;;;;;;;;;5083014;28;20305;-66
2021/11/05 01:55:37;;;;;;;0.10;0.10;;;;;;;;;;5083835;28;20213;-66
2021/11/05 01:58:04;;;;;;;0.10;0.10;;;;;;;;;;5083618;28;20209;-66
2021/11/05 02:00:31;;;;;;;0.20;0.20;;;;;;;;;;5083761;28;20409;-66
2021/11/05 02:02:57;;;;;;;0.10;0.10;;;;;;;;;;5083582;28;20199;-67
2021/11/05 02:05:24;;;;;;;0.10;0.10;;;;;;;;;;5083422;28;20244;-67
2021/11/05 02:07:51;;;;;;;0.10;0.10;;;;;;;;;;5083566;28;20225;-67
2021/11/05 02:10:18;;;;;;;0.20;0.20;;;;;;;;;;5083426;28;20544;-66
2021/11/05 02:12:46;;;;;;;0.10;0.10;;;;;;;;;;5082988;28;20226;-66
2021/11/05 02:15:14;;;;;;;0.10;0.10;;;;;;;;;;5083409;28;20210;-67
2021/11/05 02:17:40;;;;;;;0.10;0.10;;;;;;;;;;5083286;28;20372;-67
2021/11/05 02:20:08;;;;;;;0.10;0.10;;;;;;;;;;5083124;28;20214;-67
2021/11/05 02:22:36;;;;;;;0.10;0.10;;;;;;;;;;5082567;28;20211;-67
2021/11/05 02:25:02;;;;;;;0.10;0.10;;;;;;;;;;5082772;28;20256;-67
2021/11/05 02:27:29;;;;;;;0.10;0.10;;;;;;;;;;5083134;28;20229;-67
2021/11/05 02:29:56;;;;;;;0.20;0.20;;;;;;;;;;5086194;28;20226;-67
2021/11/05 02:32:22;;;;;;;0.17;0.17;;;;;;;;;;5093332;28;20233;-66
2021/11/05 02:34:48;;;;;;;0.10;0.10;;;;;;;;;;5082964;28;20207;-67
2021/11/05 02:37:15;;;;;;;0.10;0.10;;;;;;;;;;5083210;28;20396;-66
2021/11/05 02:39:43;;;;;;;0.20;0.20;;;;;;;;;;5083148;28;20203;-67
2021/11/05 02:42:09;;;;;;;0.10;0.10;;;;;;;;;;5083308;28;20227;-67
2021/11/05 02:44:35;;;;;;;0.10;0.10;;;;;;;;;;5085989;28;20230;-67
2021/11/05 02:47:14;;;;;;;0.10;0.10;;;;;;;;;;5082999;28;20428;-65
2021/11/05 02:49:40;;;;;;;0.10;0.10;;;;;;;;;;5083002;28;20268;-67
2021/11/05 02:52:06;;;;;;;0.10;0.10;;;;;;;;;;5082824;28;20467;-67
2021/11/05 02:54:33;;;;;;;0.10;0.10;;;;;;;;;;5082582;28;20206;-67
2021/11/05 02:57:00;;;;;;;0.10;0.10;;;;;;;;;;5082685;28;20210;-67
2021/11/05 02:59:26;;;;;;;0.40;0.40;;;;;;;;;;5082933;28;20378;-67
2021/11/05 03:01:53;;;;;;;0.20;0.20;;;;;;;;;;5082693;28;20211;-67
2021/11/05 03:04:22;;;;;;;0.10;0.10;;;;;;;;;;5082425;28;20443;-67
2021/11/05 03:06:49;;;;;;;0.10;0.10;;;;;;;;;;5082785;28;20230;-67
2021/11/05 03:09:16;;;;;;;0.10;0.10;;;;;;;;;;5082307;28;20256;-67
2021/11/05 03:11:43;;;;;;;0.10;0.10;;;;;;;;;;5082641;28;20226;-67
2021/11/05 03:14:12;;;;;;;0.10;0.10;;;;;;;;;;5082658;28;20213;-66
2021/11/05 03:16:38;;;;;;;0.10;0.10;;;;;;;;;;5082601;28;20497;-66
2021/11/05 03:19:05;;;;;;;0.17;0.17;;;;;;;;;;5082130;28;20214;-66
2021/11/05 03:21:31;;;;;;;0.10;0.10;;;;;;;;;;5082588;28;20232;-66
2021/11/05 03:23:57;;;;;;;0.13;0.13;;;;;;;;;;5082434;28;20272;-66
2021/11/05 03:26:24;;;;;;;0.10;0.10;;;;;;;;;;5082409;28;20248;-66
2021/11/05 03:28:50;;;;;;;0.10;0.10;;;;;;;;;;5082412;28;20277;-66
2021/11/05 03:31:18;;;;;;;0.87;0.87;;;;;;;;;;5082287;28;20275;-66
2021/11/05 03:33:45;;;;;;;0.10;0.10;;;;;;;;;;5082303;28;20227;-67
2021/11/05 03:36:11;;;;;;;0.10;0.10;;;;;;;;;;5086173;28;20420;-66
2021/11/05 03:38:37;;;;;;;0.10;0.10;;;;;;;;;;5086785;28;20218;-66
2021/11/05 03:41:03;;;;;;;0.10;0.10;;;;;;;;;;5085967;28;20206;-68
2021/11/05 03:43:30;;;;;;;0.10;0.10;;;;;;;;;;5086169;28;20281;-66
2021/11/05 03:45:56;;;;;;;0.10;0.10;;;;;;;;;;5086233;28;20199;-66
2021/11/05 03:48:24;;;;;;;0.10;0.10;;;;;;;;;;5086075;28;20211;-66
2021/11/05 03:50:50;;;;;;;0.10;0.10;;;;;;;;;;5085749;28;20283;-67
2021/11/05 03:53:16;;;;;;;0.10;0.10;;;;;;;;;;5085977;28;20409;-67
2021/11/05 03:55:42;;;;;;;0.10;0.10;;;;;;;;;;5086086;28;20241;-67
2021/11/05 03:58:08;;;;;;;0.10;0.10;;;;;;;;;;5085871;28;20207;-67
2021/11/05 04:00:35;;;;;;;0.10;0.10;;;;;;;;;;5085667;28;20210;-66
2021/11/05 04:03:01;;;;;;;0.10;0.10;;;;;;;;;;5085945;28;20237;-67
2021/11/05 04:05:29;;;;;;;0.10;0.10;;;;;;;;;;5085509;28;20241;-66
2021/11/05 04:07:55;;;;;;;0.10;0.10;;;;;;;;;;5085783;28;20211;-67
2021/11/05 04:10:22;;;;;;;0.10;0.10;;;;;;;;;;5085901;28;20256;-66
2021/11/05 04:12:48;;;;;;;0.10;0.10;;;;;;;;;;5085554;28;20215;-67
2021/11/05 04:15:14;;;;;;;0.10;0.10;;;;;;;;;;5085844;28;20203;-67
2021/11/05 04:17:40;;;;;;;0.10;0.10;;;;;;;;;;5085601;28;20199;-65
2021/11/05 04:20:08;;;;;;;0.10;0.10;;;;;;;;;;5085453;28;20510;-66
2021/11/05 04:22:36;;;;;;;0.10;0.10;;;;;;;;;;5085610;28;20205;-67
2021/11/05 04:25:02;;;;;;;0.10;0.10;;;;;;;;;;5085305;28;20206;-67
2021/11/05 04:27:28;;;;;;;0.10;0.10;;;;;;;;;;5085515;28;20203;-66
2021/11/05 04:29:55;;;;;;;0.10;0.10;;;;;;;;;;5088551;28;20206;-66
2021/11/05 04:32:21;;;;;;;0.20;0.20;;;;;;;;;;5093126;28;20227;-66
2021/11/05 04:34:48;;;;;;;0.10;0.10;;;;;;;;;;5085031;28;20257;-66
2021/11/05 04:37:14;;;;;;;0.10;0.10;;;;;;;;;;5085250;28;20206;-66
2021/11/05 04:39:42;;;;;;;0.10;0.10;;;;;;;;;;5084958;28;20206;-66
2021/11/05 04:42:08;;;;;;;0.10;0.10;;;;;;;;;;5085203;28;20207;-67
2021/11/05 04:44:34;;;;;;;0.20;0.20;;;;;;;;;;5085042;28;20532;-67
2021/11/05 04:47:01;;;;;;;0.10;0.10;;;;;;;;;;5084328;28;20375;-66
2021/11/05 04:49:27;;;;;;;0.10;0.10;;;;;;;;;;5084983;28;20230;-67
2021/11/05 04:51:53;;;;;;;0.10;0.10;;;;;;;;;;5084978;28;20203;-67
2021/11/05 04:54:19;;;;;;;0.10;0.10;;;;;;;;;;5085093;28;20241;-67
2021/11/05 04:56:47;;;;;;;0.20;0.20;;;;;;;;;;5084960;28;20237;-67
2021/11/05 04:59:16;;;;;;;0.13;0.13;;;;;;;;;;5084806;28;20211;-67
2021/11/05 05:01:42;;;;;;;0.10;0.10;;;;;;;;;;5084455;28;20233;-67
2021/11/05 05:04:08;;;;;;;0.20;0.20;;;;;;;;;;5084426;28;20359;-67
2021/11/05 05:06:34;;;;;;;0.10;0.10;;;;;;;;;;5084295;28;20203;-67
2021/11/05 05:09:01;;;;;;;0.10;0.10;;;;;;;;;;5084456;28;20240;-67
2021/11/05 05:11:28;;;;;;;0.10;0.10;;;;;;;;;;5084398;28;20367;-66
2021/11/05 05:13:56;;;;;;;0.10;0.10;;;;;;;;;;5084596;28;20227;-68
2021/11/05 05:16:22;;;;;;;0.10;0.10;;;;;;;;;;5084343;28;20215;-68
2021/11/05 05:18:48;;;;;;;0.10;0.10;;;;;;;;;;5084737;28;20207;-66
2021/11/05 05:21:15;;;;;;;0.10;0.10;;;;;;;;;;5084430;28;20261;-66
2021/11/05 05:23:41;;;;;;;0.10;0.10;;;;;;;;;;5084074;28;20198;-66
2021/11/05 05:26:07;;;;;;;0.10;0.10;;;;;;;;;;5084331;28;20207;-66
2021/11/05 05:28:34;;;;;;;0.10;0.10;;;;;;;;;;5084391;28;20253;-67
2021/11/05 05:31:03;;;;;;;0.10;0.10;;;;;;;;;;5084254;28;20227;-67
2021/11/05 05:33:30;;;;;;;0.17;0.17;;;;;;;;;;5083882;28;20358;-67
2021/11/05 05:35:56;;;;;;;0.10;0.10;;;;;;;;;;5084013;28;20229;-67
2021/11/05 05:38:22;;;;;;;0.10;0.10;;;;;;;;;;5084151;28;20213;-67
2021/11/05 05:40:49;;;;;;;0.10;0.10;;;;;;;;;;5083674;28;20207;-67
2021/11/05 05:43:15;;;;;;;0.20;0.20;;;;;;;;;;5083864;28;20207;-68
2021/11/05 05:45:41;;;;;;;0.10;0.10;;;;;;;;;;5088444;28;20306;-67
2021/11/05 05:48:09;;;;;;;0.10;0.10;;;;;;;;;;5083731;28;20502;-66
2021/11/05 05:50:35;;;;;;;0.20;0.20;;;;;;;;;;5083942;28;20447;-67
2021/11/05 05:53:02;;;;;;;0.10;0.10;;;;;;;;;;5083878;28;20538;-67
2021/11/05 05:55:28;;;;;;;0.10;0.10;;;;;;;;;;5083430;28;20199;-66
2021/11/05 05:57:54;;;;;;;0.10;0.10;;;;;;;;;;5083723;28;20215;-66
2021/11/05 06:00:20;;;;;;;0.13;0.13;;;;;;;;;;5083563;28;20257;-68
2021/11/05 06:02:47;;;;;;;0.10;0.10;;;;;;;;;;5083443;28;20225;-68
2021/11/05 06:05:15;;;;;;;0.10;0.10;;;;;;;;;;5083684;28;20207;-67
2021/11/05 06:07:41;;;;;;;0.10;0.10;;;;;;;;;;5083529;28;20274;-67
2021/11/05 06:10:08;;;;;;;0.10;0.10;;;;;;;;;;5083456;28;20402;-67
2021/11/05 06:12:34;;;;;;;0.10;0.10;;;;;;;;;;5083054;28;20211;-67
2021/11/05 06:15:01;;;;;;;0.10;0.10;;;;;;;;;;5083171;28;20237;-67
2021/11/05 06:17:27;;;;;;;0.10;0.10;;;;;;;;;;5083137;28;20274;-67
2021/11/05 06:19:53;;;;;;;0.10;0.10;;;;;;;;;;5083586;28;20199;-67
2021/11/05 06:22:21;;;;;;;0.10;0.10;;;;;;;;;;5083225;28;20207;-67
2021/11/05 06:24:47;;;;;;;0.10;0.10;;;;;;;;;;5083063;28;20210;-66
2021/11/05 06:27:13;;;;;;;0.10;0.10;;;;;;;;;;5084502;28;20204;-67
2021/11/05 06:29:40;;;;;;;0.10;0.10;;;;;;;;;;5082847;28;20328;-67
2021/11/05 06:32:06;;;;;;;0.10;0.10;;;;;;;;;;5082907;28;20269;-67
2021/11/05 06:34:33;;;;;;;0.10;0.10;;;;;;;;;;5082949;28;20227;-68
2021/11/05 06:36:59;;;;;;;0.10;0.10;;;;;;;;;;5082756;28;20207;-66
2021/11/05 06:39:27;;;;;;;0.20;0.20;;;;;;;;;;5083097;28;20429;-67
2021/11/05 06:41:55;;;;;;;0.20;0.20;;;;;;;;;;5083222;28;20210;-69
2021/11/05 06:44:21;;;;;;;0.10;0.10;;;;;;;;;;5082779;28;20605;-67
2021/11/05 06:46:47;;;;;;;0.10;0.10;;;;;;;;;;5082726;28;20207;-67
2021/11/05 06:49:13;;;;;;;0.10;0.10;;;;;;;;;;5083179;28;20556;-67
2021/11/05 06:51:40;;;;;;;0.10;0.10;;;;;;;;;;5083005;28;20207;-66
2021/11/05 06:54:06;;;;;;;0.10;0.10;;;;;;;;;;5082982;28;20222;-66
2021/11/05 06:56:33;;;;;;;0.10;0.10;;;;;;;;;;5082857;28;20266;-66
2021/11/05 06:59:01;;;;;;;0.10;0.10;;;;;;;;;;5082804;28;20213;-67
2021/11/05 07:01:30;;;;;;;0.10;0.10;;;;;;;;;;5083104;28;20274;-69
2021/11/05 07:03:57;;;;;;;0.10;0.10;;;;;;;;;;5082429;28;20276;-67
2021/11/05 07:06:23;;;;;;;0.20;0.20;;;;;;;;;;5082996;28;20381;-67
2021/11/05 07:08:49;;;;;;;0.10;0.10;;;;;;;;;;5082421;28;20226;-67
2021/11/05 07:11:16;;;;;;;0.10;0.10;;;;;;;;;;5085653;28;20269;-66
2021/11/05 07:13:43;;;;;;;0.10;0.10;;;;;;;;;;5084962;28;20286;-67
2021/11/05 07:16:10;;;;;;;0.10;0.10;;;;;;;;;;5087557;28;20208;-66
2021/11/05 07:18:37;;;;;;;0.10;0.10;;;;;;;;;;5082585;28;20393;-66
2021/11/05 07:21:04;;;;;;;0.20;0.20;;;;;;;;;;5082800;28;20220;-68
2021/11/05 07:23:31;;;;;;;0.10;0.10;;;;;;;;;;5082799;28;20266;-69
2021/11/05 07:25:57;;;;;;;0.10;0.10;;;;;;;;;;5082605;28;20206;-67
2021/11/05 07:28:24;;;;;;;0.10;0.10;;;;;;;;;;5082758;28;20218;-68
2021/11/05 07:30:51;;;;;;;0.10;0.10;;;;;;;;;;5084802;28;20221;-67
2021/11/05 07:33:17;;;;;;;0.10;0.10;;;;;;;;;;5081611;28;20254;-67
2021/11/05 07:35:44;;;;;;;0.10;0.10;;;;;;;;;;5080771;28;20253;-69
2021/11/05 07:38:10;;;;;;;0.30;0.30;;;;;;;;;;5082118;28;20257;-68
2021/11/05 07:40:36;;;;;;;0.10;0.10;;;;;;;;;;5081303;28;20242;-69
2021/11/05 07:43:02;;;;;;;0.13;0.13;;;;;;;;;;5082392;28;20200;-70
2021/11/05 07:45:29;;;;;;;0.10;0.10;;;;;;;;;;5082266;28;20490;-68
2021/11/05 07:47:56;;;;;;;0.10;0.10;;;;;;;;;;5082474;28;20428;-68
2021/11/05 07:50:23;;;;;;;0.10;0.10;;;;;;;;;;5082450;28;20290;-69
2021/11/05 07:52:50;;;;;;;0.10;0.10;;;;;;;;;;5077803;28;20199;-66
2021/11/05 07:55:16;;;;;;;0.10;0.10;;;;;;;;;;5082508;28;20379;-68
2021/11/05 07:57:43;;;;;;;0.10;0.10;;;;;;;;;;5082019;28;20208;-67
2021/11/05 08:00:11;;;;;;;0.20;0.20;;;;;;;;;;5082264;28;20392;-68
2021/11/05 08:02:38;;;;;;;0.10;0.10;;;;;;;;;;5081959;28;20211;-68
2021/11/05 08:05:08;;;;;;;0.10;0.10;;;;;;;;;;5082383;28;20275;-67
2021/11/05 08:07:34;;;;;;;0.10;0.10;;;;;;;;;;5081717;28;20204;-68
2021/11/05 08:10:01;;;;;;;0.10;0.10;;;;;;;;;;5081915;28;20210;-68
2021/11/05 08:12:27;;;;;;;0.10;0.10;;;;;;;;;;5082370;28;20209;-68
2021/11/05 08:14:53;;;;;;;0.10;0.10;;;;;;;;;;5081760;28;20260;-65
2021/11/05 08:17:19;;;;;;;0.20;0.20;;;;;;;;;;5081721;28;20241;-69
2021/11/05 08:19:46;;;;;;;0.10;0.10;;;;;;;;;;5082210;28;20226;-67
2021/11/05 08:22:17;;;;;;;0.20;0.20;;;;;;;;;;5083901;28;20212;-68
2021/11/05 08:24:43;;;;;;;0.10;0.10;;;;;;;;;;5085367;28;20195;-68
2021/11/05 08:27:09;;;;;;;0.10;0.10;;;;;;;;;;5085543;28;20238;-68
2021/11/05 08:29:36;;;;;;;0.10;0.10;;;;;;;;;;5085520;28;20200;-67
2021/11/05 08:32:02;;;;;;;0.20;0.20;;;;;;;;;;5085294;28;20219;-67
2021/11/05 08:34:28;;;;;;;0.10;0.10;;;;;;;;;;5085365;28;20269;-68
2021/11/05 08:36:55;;;;;;;0.10;0.10;;;;;;;;;;5085243;28;20207;-69
2021/11/05 08:39:22;;;;;;;0.10;0.10;;;;;;;;;;5085224;28;20207;-68
2021/11/05 08:41:48;;;;;;;0.10;0.10;;;;;;;;;;5089353;28;20206;-68
2021/11/05 08:44:15;;;;;;;0.10;0.10;;;;;;;;;;5088354;28;20214;-68
2021/11/05 08:46:43;;;;;;;0.10;0.10;;;;;;;;;;5085266;28;20207;-65
2021/11/05 08:49:10;;;;;;;0.30;0.30;;;;;;;;;;5085445;28;20207;-70
2021/11/05 08:51:37;;;;;;;0.20;0.20;;;;;;;;;;5084709;28;20514;-68
2021/11/05 08:54:04;;;;;;;0.10;0.10;;;;;;;;;;5084796;28;20221;-67
2021/11/05 08:56:31;;;;;;;0.10;0.10;;;;;;;;;;5084426;28;20301;-68
2021/11/05 08:58:58;;;;;;;0.10;0.10;;;;;;;;;;5085115;28;20256;-68
2021/11/05 09:01:24;;;;;;;0.10;0.10;;;;;;;;;;5087262;28;20203;-67
2021/11/05 09:03:50;;;;;;;0.10;0.10;;;;;;;;;;5084235;28;20262;-67
2021/11/05 09:06:17;;;;;;;0.10;0.10;;;;;;;;;;5084806;28;20209;-68
2021/11/05 09:08:43;;;;;;;0.13;0.13;;;;;;;;;;5084727;28;20207;-67
2021/11/05 09:11:11;;;;;;;0.10;0.10;;;;;;;;;;5084423;28;20460;-66
2021/11/05 09:13:38;;;;;;;0.10;0.10;;;;;;;;;;5084800;28;20426;-67
2021/11/05 09:16:05;;;;;;;0.13;0.13;;;;;;;;;;5084793;28;20219;-68
2021/11/05 09:18:32;;;;;;;0.10;0.10;;;;;;;;;;5084348;28;20207;-68
2021/11/05 09:21:00;;;;;;;0.20;0.20;;;;;;;;;;5084676;28;20231;-67
2021/11/05 09:23:26;;;;;;;0.53;0.53;;;;;;;;;;5084697;28;20203;-70
2021/11/05 09:25:54;;;;;;;0.20;0.20;;;;;;;;;;5084428;28;20203;-70
2021/11/05 09:28:20;;;;;;;0.10;0.10;;;;;;;;;;5084134;28;20274;-70
2021/11/05 09:30:48;;;;;;;0.10;0.10;;;;;;;;;;5084479;28;20506;-69
2021/11/05 09:33:17;;;;;;;0.20;0.20;;;;;;;;;;5083935;28;20235;-69
2021/11/05 09:35:43;;;;;;;0.10;0.10;;;;;;;;;;5084269;28;20246;-70
2021/11/05 09:38:11;;;;;;;0.10;0.10;;;;;;;;;;5084302;28;20216;-70
2021/11/05 09:40:37;;;;;;;0.10;0.10;;;;;;;;;;5084248;28;20495;-70
2021/11/05 09:43:03;;;;;;;0.10;0.10;;;;;;;;;;5083858;28;20204;-71
2021/11/05 09:45:32;;;;;;;0.10;0.10;;;;;;;;;;5084130;28;20237;-72
2021/11/05 09:48:00;;;;;;;0.10;0.10;;;;;;;;;;5084163;28;20203;-71
2021/11/05 09:50:26;;;;;;;0.57;0.57;;;;;;;;;;5083963;28;20214;-69
2021/11/05 09:52:52;;;;;;;0.13;0.13;;;;;;;;;;5084106;28;20568;-70
2021/11/05 09:55:19;;;;;;;0.10;0.10;;;;;;;;;;5078645;28;20227;-68
2021/11/05 09:57:46;;;;;;;0.23;0.23;;;;;;;;;;5083463;28;20597;-68
2021/11/05 10:00:13;;;;;;;0.17;0.17;;;;;;;;;;5084046;28;20210;-68
2021/11/05 10:02:40;;;;;;;0.20;0.20;;;;;;;;;;5083560;28;20212;-68
2021/11/05 10:05:10;;;;;;;0.20;0.20;;;;;;;;;;5083972;28;20343;-67
2021/11/05 10:07:44;;;;;;;0.10;0.10;;;;;;;;;;5083721;28;20199;-68
2021/11/05 10:10:11;;;;;;;0.20;0.20;;;;;;;;;;5083477;28;20210;-68
2021/11/05 10:12:37;;;;;;;0.10;0.10;;;;;;;;;;5083617;28;20210;-69
2021/11/05 10:15:05;;;;;;;0.10;0.10;;;;;;;;;;5083567;28;20390;-68
2021/11/05 10:17:32;;;;;;;0.10;0.10;;;;;;;;;;5083508;28;20204;-72
2021/11/05 10:20:00;;;;;;;0.20;0.20;;;;;;;;;;5083336;28;20278;-68
2021/11/05 10:22:40;;;;;;;0.10;0.10;;;;;;;;;;5083341;28;20201;-67
2021/11/05 10:25:21;;;;;;;0.10;0.10;;;;;;;;;;5071907;28;20233;-67
2021/11/05 10:27:47;;;;;;;0.17;0.17;;;;;;;;;;5083484;28;20434;-68
2021/11/05 10:30:14;;;;;;;0.10;0.10;;;;;;;;;;5089466;28;20440;-68
2021/11/05 10:32:53;;;;;;;0.10;0.10;;;;;;;;;;5088290;28;20231;-68
2021/11/05 10:35:21;;;;;;;0.20;0.20;;;;;;;;;;5083315;28;20310;-68
2021/11/05 10:37:52;;;;;;;0.10;0.10;;;;;;;;;;5082928;28;20278;-68
2021/11/05 10:40:18;;;;;;;0.40;0.40;;;;;;;;;;5083185;28;20211;-69
2021/11/05 10:42:46;;;;;;;0.20;0.20;;;;;;;;;;5083299;28;20207;-68
2021/11/05 10:45:14;;;;;;;0.10;0.10;;;;;;;;;;5081472;28;20203;-68
2021/11/05 10:47:55;;;;;;;0.50;0.50;;;;;;;;;;5083286;28;20220;-68
2021/11/05 10:50:22;;;;;;;0.10;0.10;;;;;;;;;;5082613;28;20199;-69
2021/11/05 10:52:59;;;;;;;0.10;0.10;;;;;;;;;;5083180;28;20204;-68
2021/11/05 10:55:25;;;;;;;0.10;0.10;;;;;;;;;;5082359;28;20243;-68
2021/11/05 10:57:54;;;;;;;0.10;0.10;;;;;;;;;;5091627;28;20198;-68
2021/11/05 11:00:21;;;;;;;0.60;0.60;;;;;;;;;;5083637;28;20266;-67
2021/11/05 11:02:48;;;;;;;0.17;0.17;;;;;;;;;;5082914;28;20208;-67
2021/11/05 11:05:29;;;;;;;0.10;0.10;;;;;;;;;;5082660;28;20373;-68
2021/11/05 11:07:56;;;;;;;0.10;0.10;;;;;;;;;;5088949;28;20207;-70
2021/11/05 11:10:30;;;;;;;0.10;0.10;;;;;;;;;;5095278;28;20240;-70
2021/11/05 11:12:57;;;;;;;0.13;0.13;;;;;;;;;;5092822;28;20325;-69
2021/11/05 11:15:31;;;;;;;0.23;0.23;;;;;;;;;;5082595;28;20232;-71
2021/11/05 11:17:57;;;;;;;0.10;0.10;;;;;;;;;;5082411;28;20242;-69
2021/11/05 11:20:30;;;;;;;0.10;0.10;;;;;;;;;;5082306;28;20207;-70
2021/11/05 11:22:57;;;;;;;0.10;0.10;;;;;;;;;;5082574;28;20206;-70
2021/11/05 11:25:23;;;;;;;0.10;0.10;;;;;;;;;;5082481;28;20227;-70
2021/11/05 11:27:51;;;;;;;0.10;0.10;;;;;;;;;;5082334;28;20231;-69
2021/11/05 11:30:18;;;;;;;0.10;0.10;;;;;;;;;;5082365;28;20207;-68
2021/11/05 11:32:45;;;;;;;0.10;0.10;;;;;;;;;;5082593;28;20223;-71
2021/11/05 11:35:12;;;;;;;0.10;0.10;;;;;;;;;;5082441;28;20261;-70
2021/11/05 11:37:39;;;;;;;0.30;0.30;;;;;;;;;;5082599;28;20203;-69
2021/11/05 11:40:06;;;;;;;0.10;0.10;;;;;;;;;;5078819;28;20379;-70
2021/11/05 11:42:33;;;;;;;0.10;0.10;;;;;;;;;;5082457;28;20271;-71
2021/11/05 11:45:01;;;;;;;0.20;0.20;;;;;;;;;;5082123;28;20204;-70
2021/11/05 11:47:40;;;;;;;0.10;0.10;;;;;;;;;;5082554;28;20211;-70
2021/11/05 11:50:19;;;;;;;0.10;0.10;;;;;;;;;;5082540;28;20287;-72
2021/11/05 11:52:46;;;;;;;0.10;0.10;;;;;;;;;;5082491;28;20233;-70
2021/11/05 11:55:14;;;;;;;0.10;0.10;;;;;;;;;;5082854;28;20220;-69
2021/11/05 11:57:40;;;;;;;0.10;0.10;;;;;;;;;;5098369;28;20207;-68
2021/11/05 12:00:09;;;;;;;0.10;0.10;;;;;;;;;;5086067;28;20203;-69
2021/11/05 12:02:37;;;;;;;0.10;0.10;;;;;;;;;;5085993;28;20275;-69
2021/11/05 12:05:24;;;;;;;0.10;0.10;;;;;;;;;;5085770;28;20291;-70
2021/11/05 12:08:05;;;;;;;0.10;0.10;;;;;;;;;;5071712;28;20213;-71
2021/11/05 12:10:31;;;;;;;0.10;0.10;;;;;;;;;;5085549;28;20206;-69
2021/11/05 12:12:58;;;;;;;0.10;0.10;;;;;;;;;;5085713;28;20281;-68
2021/11/05 12:15:25;;;;;;;0.10;0.10;;;;;;;;;;5085513;28;20267;-68
2021/11/05 12:18:14;;;;;;;0.10;0.10;;;;;;;;;;5085874;28;20213;-68
2021/11/05 12:20:42;;;;;;;0.10;0.10;;;;;;;;;;5082627;28;20200;-69
2021/11/05 12:23:20;;;;;;;0.10;0.10;;;;;;;;;;5085375;28;20212;-69
2021/11/05 12:25:47;;;;;;;0.10;0.10;;;;;;;;;;5085677;28;20199;-69
2021/11/05 12:28:14;;;;;;;0.10;0.10;;;;;;;;;;5085300;28;20257;-69
2021/11/05 12:30:42;;;;;;;0.13;0.13;;;;;;;;;;5085399;28;20201;-71
2021/11/05 12:33:23;;;;;;;0.10;0.10;;;;;;;;;;5085487;28;20208;-69
2021/11/05 12:35:52;;;;;;;0.10;0.10;;;;;;;;;;5085471;28;20221;-70
2021/11/05 12:38:19;;;;;;;0.10;0.10;;;;;;;;;;5085235;28;20213;-69
2021/11/05 12:40:55;;;;;;;0.10;0.10;;;;;;;;;;5085419;28;20426;-68
2021/11/05 12:43:38;;;;;;;0.10;0.10;;;;;;;;;;5085281;28;20215;-68
2021/11/05 12:46:07;;;;;;;0.10;0.10;;;;;;;;;;5085026;28;20263;-67
2021/11/05 12:49:00;;;;;;;0.10;0.10;;;;;;;;;;5084966;28;20211;-68
2021/11/05 12:51:28;;;;;;;0.10;0.10;;;;;;;;;;5084770;28;20196;-69
2021/11/05 12:53:56;;;;;;;0.10;0.10;;;;;;;;;;5084724;28;20219;-65
2021/11/05 12:56:22;;;;;;;0.10;0.10;;;;;;;;;;5084814;28;20229;-65
2021/11/05 12:58:49;;;;;;;0.10;0.10;;;;;;;;;;5084994;28;20239;-66
2021/11/05 13:01:18;;;;;;;0.10;0.10;;;;;;;;;;5084831;28;20405;-64
2021/11/05 13:04:01;;;;;;;0.10;0.10;;;;;;;;;;5084515;28;20232;-66
2021/11/05 13:06:33;;;;;;;0.10;0.10;;;;;;;;;;5083904;28;20244;-67
2021/11/05 13:08:59;;;;;;;0.10;0.10;;;;;;;;;;5084661;28;20200;-66
2021/11/05 13:11:25;;;;;;;0.10;0.10;;;;;;;;;;5084866;28;20219;-66
2021/11/05 13:13:52;;;;;;;0.10;0.10;;;;;;;;;;5084405;28;20205;-66
2021/11/05 13:16:22;;;;;;;0.10;0.10;;;;;;;;;;5084140;28;20232;-66
2021/11/05 13:18:48;;;;;;;0.10;0.10;;;;;;;;;;5097352;28;20256;-66
2021/11/05 13:21:17;;;;;;;0.20;0.20;;;;;;;;;;5085472;28;20238;-69
2021/11/05 13:23:43;;;;;;;0.10;0.10;;;;;;;;;;5084112;28;20231;-68
2021/11/05 13:26:10;;;;;;;0.10;0.10;;;;;;;;;;5084358;28;20251;-69
2021/11/05 13:28:36;;;;;;;0.10;0.10;;;;;;;;;;5084583;28;20230;-68
2021/11/05 13:31:03;;;;;;;0.10;0.10;;;;;;;;;;5084248;28;20434;-69
2021/11/05 13:33:31;;;;;;;0.10;0.10;;;;;;;;;;5084192;28;20280;-70
2021/11/05 13:35:59;;;;;;;0.10;0.10;;;;;;;;;;5084015;28;20229;-69
2021/11/05 13:38:26;;;;;;;0.10;0.10;;;;;;;;;;5084129;28;20232;-67
2021/11/05 13:40:53;;;;;;;0.10;0.10;;;;;;;;;;5084316;28;20587;-69
2021/11/05 13:43:20;;;;;;;0.10;0.10;;;;;;;;;;5084017;28;20215;-69
2021/11/05 13:45:48;;;;;;;0.10;0.10;;;;;;;;;;5084228;28;20242;-69
2021/11/05 13:48:15;;;;;;;0.10;0.10;;;;;;;;;;5084087;28;20468;-69
2021/11/05 13:50:43;;;;;;;0.10;0.10;;;;;;;;;;5083731;28;20220;-69
2021/11/05 13:53:09;;;;;;;0.10;0.10;;;;;;;;;;5083938;28;20424;-69
2021/11/05 13:55:36;;;;;;;0.10;0.10;;;;;;;;;;5083966;28;20386;-64
2021/11/05 13:58:03;;;;;;;0.10;0.10;;;;;;;;;;5083922;28;20213;-65
2021/11/05 14:00:36;;;;;;;0.10;0.10;;;;;;;;;;5083829;28;20411;-63
2021/11/05 14:03:02;;;;;;;0.10;0.10;;;;;;;;;;5083574;28;20228;-65
2021/11/05 14:05:29;;;;;;;0.10;0.10;;;;;;;;;;5083616;28;20239;-65
2021/11/05 14:08:07;;;;;;;0.10;0.10;;;;;;;;;;5083677;28;20416;-65
2021/11/05 14:10:45;;;;;;;0.10;0.10;;;;;;;;;;5083524;28;20419;-65
2021/11/05 14:13:12;;;;;;;0.10;0.10;;;;;;;;;;5083743;28;20493;-63
2021/11/05 14:15:38;;;;;;;0.10;0.10;;;;;;;;;;5083361;28;20276;-63
2021/11/05 14:18:11;;;;;;;0.10;0.10;;;;;;;;;;5083535;28;20209;-65
2021/11/05 14:20:37;;;;;;;0.10;0.10;;;;;;;;;;5083664;28;20383;-65
2021/11/05 14:23:04;;;;;;;0.10;0.10;;;;;;;;;;5082957;28;20209;-65
2021/11/05 14:25:32;;;;;;;0.10;0.10;;;;;;;;;;5083310;28;20216;-64
2021/11/05 14:27:58;;;;;;;0.10;0.10;;;;;;;;;;5083159;28;20207;-66
2021/11/05 14:30:26;;;;;;;0.10;0.10;;;;;;;;;;5082629;28;20210;-64
2021/11/05 14:32:54;;;;;;;0.10;0.10;;;;;;;;;;5082948;28;20258;-65
2021/11/05 14:35:21;;;;;;;0.10;0.10;;;;;;;;;;5083169;28;20286;-69
2021/11/05 14:37:51;;;;;;;0.10;0.10;;;;;;;;;;5082793;28;20211;-69
2021/11/05 14:40:19;;;;;;;0.10;0.10;;;;;;;;;;5082928;28;20295;-69
2021/11/05 14:42:56;;;;;;;0.10;0.10;;;;;;;;;;5083136;28;20213;-69
2021/11/05 14:45:23;;;;;;;0.10;0.10;;;;;;;;;;5083381;28;20189;-69